Brinsmade, North Dakota
Current Conditions -  °F | °C
As of 6:35 AM on Monday 22 Dec 2014 (Local Time) from KDVL Reporting Station
Overcast Overcast  
Wind Chill: 25°   Ceiling: 1100
Heat Index: 30°   Visibility: 5mi
Dew Point: 25°   Wind: 5mph
Humidity: 80%   Direction: 80°E
Pressure: 29.48"   Gusts: NA
Location:  48.18°N, 99.32°W
Report Text: KDVL 221235Z AUTO 08004KT 5SM OVC011 M01/M04 A2948 RMK AO1
Loading
Personal Weather Stations






























Interactive Weather Map New forecast layout! Learn more

10-Day Weather Forecast

Advertisements
Track Severe Weather on mobile